Nearby AIRPORT Reports

 

KATT - Austin/Mabry, Texas, USA
Distance from station: NE 13mi, 20km
Updated: Mon, 15-Jul-2024 9:51pm CDT

 Wind from S
Wind: S 8 mph, 13 km/h
Temperature: 88°F, 31°C
Heat Index: 92°F, 33°C
Dew Point: 68°F, 20°C
Humidity: 52%
Barometer: 29.95 inHg, 1014.2 hPa
Visibility: 10 miles, 16 km
2024/07/16 02:51 KATT 160251Z AUTO 17007KT 130V200 10SM 31/20 A2995 RMK AO2 SLP126 T03110200 $
KAUS - Austin/Bergstrom, Texas, USA
Distance from station: E 15mi, 25km
Updated: Mon, 15-Jul-2024 9:53pm CDT
Clear
Clear
 Wind from SSE
Wind: SSE 10 mph, 17 km/h
Temperature: 84°F, 29°C
Heat Index: 89°F, 32°C
Dew Point: 72°F, 22°C
Humidity: 66%
Barometer: 29.94 inHg, 1013.9 hPa
Clouds: Clear
Visibility: 10 miles, 16 km
2024/07/16 02:53 KAUS 160253Z 16009KT 10SM CLR 29/22 A2994 RMK AO2 SLP125 T02940222 53009
 
KHYI - San Marcos, Texas, USA
Distance from station: S 23mi, 37km
Updated: Mon, 15-Jul-2024 9:56pm CDT
Clear
Clear
 Wind from SSE
Wind: SSE 7 mph, 11 km/h
Temperature: 82°F, 28°C
Heat Index: 86°F, 30°C
Dew Point: 70°F, 21°C
Humidity: 66%
Barometer: 29.96 inHg, 1014.6 hPa
Clouds: Clear
Visibility: 10 miles, 16 km
2024/07/16 02:56 KHYI 160256Z AUTO 15006KT 10SM CLR 28/21 A2996 RMK AO2 SLP138 T02830211 53009
KGTU - Georgetown, Texas, USA
Distance from station: NNE 36mi, 58km
Updated: Mon, 15-Jul-2024 9:56pm CDT
Clear
Clear
 Wind from SSE
Wind: SSE 9 mph, 15 km/h
Temperature: 88°F, 31°C
Heat Index: 90°F, 32°C
Dew Point: 64°F, 18°C
Humidity: 46%
Barometer: 29.96 inHg, 1014.6 hPa
Clouds: Clear
Visibility: 10 miles, 16 km
2024/07/16 02:56 KGTU 160256Z 16008KT 10SM CLR 31/18 A2996 RMK AO2 SLP137 T03110178 53008
 
KBMQ - Burnet, Texas, USA
Distance from station: NNW 40mi, 65km
Updated: Mon, 15-Jul-2024 9:53pm CDT
Clear
Clear
 Wind from SSE
Wind: SSE 6 mph, 9 km/h
Temperature: 88°F, 31°C
Heat Index: 90°F, 32°C
Dew Point: 64°F, 18°C
Humidity: 46%
Barometer: 29.98 inHg, 1015.2 hPa
Clouds: Clear
Visibility: 10 miles, 16 km
2024/07/16 02:53 KBMQ 160253Z AUTO 16005KT 10SM CLR 31/18 A2998 RMK AO2 SLP130 T03060183 53008
KT82 - Fredericksburg, Texas, USA
Distance from station: W 59mi, 94km
Updated: Mon, 15-Jul-2024 10:15pm CDT
Clear
Clear
 Wind from SSE
Wind: SSE 8 mph, 13 km/h
Temperature: 84°F, 29°C
Heat Index: 85°F, 29°C
Dew Point: 64°F, 18°C
Humidity: 51%
Barometer: 29.99 inHg, 1015.6 hPa
Clouds: Clear
2024/07/16 03:15 KT82 160315Z AUTO 16007KT CLR 29/18 A2999 RMK AO2 T02890175 PWINO
 
KGTU - Georgetown, Texas, USA
Distance from station: NNE 36mi, 58km
Updated: Mon, 15-Jul-2024 9:56pm CDT
Clear
Clear
 Wind from SSE
Wind: SSE 9 mph, 15 km/h
Temperature: 88°F, 31°C
Heat Index: 90°F, 32°C
Dew Point: 64°F, 18°C
Humidity: 46%
Barometer: 29.96 inHg, 1014.6 hPa
Clouds: Clear
Visibility: 10 miles, 16 km
2024/07/16 02:56 KGTU 160256Z 16008KT 10SM CLR 31/18 A2996 RMK AO2 SLP137 T03110178 53008
KAQO - Llano, Texas, USA
Distance from station: NW 59mi, 95km
Updated: Mon, 15-Jul-2024 10:15pm CDT
Few Clouds
Few Clouds
 Wind from SSE
Wind: SSE 7 mph, 11 km/h
Temperature: 88°F, 31°C
Heat Index: 90°F, 32°C
Dew Point: 64°F, 18°C
Humidity: 46%
Barometer: 29.94 inHg, 1013.9 hPa
Clouds: Few Clouds
Visibility: 10 miles, 16 km
Cloud details: Few Clouds 4100 ft
2024/07/16 03:15 KAQO 160315Z AUTO 15006KT 10SM FEW041 31/18 A2994 RMK AO2
 
KERV - Kerrville, Texas, USA
Distance from station: WSW 70mi, 113km
Updated: Mon, 15-Jul-2024 10:15pm CDT
Clear
Clear
 Wind from SSE
Wind: SSE 10 mph, 17 km/h
Temperature: 86°F, 30°C
Heat Index: 87°F, 31°C
Dew Point: 63°F, 17°C
Humidity: 46%
Barometer: 30.00 inHg, 1015.9 hPa
Clouds: Clear
Visibility: 10 miles, 16 km
2024/07/16 03:15 KERV 160315Z AUTO 16009KT 10SM CLR 30/17 A3000 RMK AO2 T02960170
KSAT - San Antonio, Texas, USA
Distance from station: SW 56mi, 91km
Updated: Mon, 15-Jul-2024 9:51pm CDT
Few Clouds
Few Clouds
 Wind from S
Wind: S 10 mph, 17 km/h
Temperature: 88°F, 31°C
Heat Index: 89°F, 32°C
Dew Point: 63°F, 17°C
Humidity: 43%
Barometer: 29.95 inHg, 1014.2 hPa
Clouds: Few Clouds
Visibility: 10 miles, 16 km
Cloud details: Few Clouds 25000 ft
2024/07/16 02:51 KSAT 160251Z 18009KT 10SM FEW250 31/17 A2995 RMK AO2 SLP123 T03110167 53007
 
K11R - Brenham, Texas, USA
Distance from station: E 94mi, 151km
Updated: Mon, 15-Jul-2024 10:15pm CDT
Clear
Clear
 Wind from S
Wind: S 7 mph, 11 km/h
Temperature: 84°F, 29°C
Heat Index: 94°F, 34°C
Dew Point: 77°F, 25°C
Humidity: 79%
Barometer: 29.97 inHg, 1014.9 hPa
Clouds: Clear
Visibility: 10 miles, 16 km
2024/07/16 03:15 K11R 160315Z AUTO 17006KT 10SM CLR 29/25 A2997 RMK AO2 T02910252
KTME - Houston Exec, Texas, USA
Distance from station: ESE 125mi, 201km
Updated: Mon, 15-Jul-2024 10:15pm CDT
Clear
Clear
 Wind from S
Wind: S 7 mph, 11 km/h
Temperature: 82°F, 28°C
Heat Index: 91°F, 33°C
Dew Point: 79°F, 26°C
Humidity: 89%
Barometer: 29.99 inHg, 1015.6 hPa
Clouds: Clear
Visibility: 10 miles, 16 km
2024/07/16 03:15 KTME 160315Z AUTO 18006KT 10SM CLR 28/26 A2999 RMK AO2